sensor_id;sensor_type;location;lat;lon;timestamp;temperature;humidity
7445;DHT22;3764;48.126;11.594;2022-11-04T00:02:14;12.20;99.90
7445;DHT22;3764;48.126;11.594;2022-11-04T00:04:41;12.10;99.90
7445;DHT22;3764;48.126;11.594;2022-11-04T00:07:08;12.10;99.90
7445;DHT22;3764;48.126;11.594;2022-11-04T00:09:50;12.20;99.90
7445;DHT22;3764;48.126;11.594;2022-11-04T00:12:17;12.10;99.90
7445;DHT22;3764;48.126;11.594;2022-11-04T00:14:49;12.10;99.90
7445;DHT22;3764;48.126;11.594;2022-11-04T00:17:16;12.10;99.90
7445;DHT22;3764;48.126;11.594;2022-11-04T00:19:47;12.10;99.90
7445;DHT22;3764;48.126;11.594;2022-11-04T00:22:33;12.10;99.90
7445;DHT22;3764;48.126;11.594;2022-11-04T00:25:19;12.10;99.90
7445;DHT22;3764;48.126;11.594;2022-11-04T00:28:05;12.10;99.90
7445;DHT22;3764;48.126;11.594;2022-11-04T00:30:53;12.10;99.90
7445;DHT22;3764;48.126;11.594;2022-11-04T00:33:20;12.10;99.90
7445;DHT22;3764;48.126;11.594;2022-11-04T00:35:55;12.10;99.90
7445;DHT22;3764;48.126;11.594;2022-11-04T00:38:23;12.10;99.90
7445;DHT22;3764;48.126;11.594;2022-11-04T00:40:52;12.00;99.90
7445;DHT22;3764;48.126;11.594;2022-11-04T00:43:19;12.00;99.90
7445;DHT22;3764;48.126;11.594;2022-11-04T00:45:46;11.90;99.90
7445;DHT22;3764;48.126;11.594;2022-11-04T00:48:13;11.90;99.90
7445;DHT22;3764;48.126;11.594;2022-11-04T00:50:41;11.90;99.90
7445;DHT22;3764;48.126;11.594;2022-11-04T00:53:08;11.90;99.90
7445;DHT22;3764;48.126;11.594;2022-11-04T00:55:35;11.80;99.90
7445;DHT22;3764;48.126;11.594;2022-11-04T00:58:04;11.80;99.90
7445;DHT22;3764;48.126;11.594;2022-11-04T01:00:31;11.80;99.90
7445;DHT22;3764;48.126;11.594;2022-11-04T01:02:58;11.80;99.90
7445;DHT22;3764;48.126;11.594;2022-11-04T01:05:26;11.70;99.90
7445;DHT22;3764;48.126;11.594;2022-11-04T01:07:53;11.70;99.90
7445;DHT22;3764;48.126;11.594;2022-11-04T01:10:20;11.60;99.90
7445;DHT22;3764;48.126;11.594;2022-11-04T01:12:47;11.50;99.90
7445;DHT22;3764;48.126;11.594;2022-11-04T01:15:16;11.50;99.90
7445;DHT22;3764;48.126;11.594;2022-11-04T01:17:43;11.40;99.90
7445;DHT22;3764;48.126;11.594;2022-11-04T01:20:10;11.30;99.90
7445;DHT22;3764;48.126;11.594;2022-11-04T01:22:38;11.20;99.90
7445;DHT22;3764;48.126;11.594;2022-11-04T01:25:07;11.00;99.90
7445;DHT22;3764;48.126;11.594;2022-11-04T01:27:34;10.90;99.90
7445;DHT22;3764;48.126;11.594;2022-11-04T01:30:01;10.90;99.90
7445;DHT22;3764;48.126;11.594;2022-11-04T01:32:30;10.80;99.90
7445;DHT22;3764;48.126;11.594;2022-11-04T01:34:57;10.70;99.90
7445;DHT22;3764;48.126;11.594;2022-11-04T01:37:24;10.60;99.90
7445;DHT22;3764;48.126;11.594;2022-11-04T01:39:51;10.50;99.90
7445;DHT22;3764;48.126;11.594;2022-11-04T01:42:20;10.50;99.90
7445;DHT22;3764;48.126;11.594;2022-11-04T01:44:56;10.40;99.90
7445;DHT22;3764;48.126;11.594;2022-11-04T01:47:35;10.30;99.90
7445;DHT22;3764;48.126;11.594;2022-11-04T01:50:08;10.30;99.90
7445;DHT22;3764;48.126;11.594;2022-11-04T01:52:40;10.30;99.90
7445;DHT22;3764;48.126;11.594;2022-11-04T01:55:11;10.30;99.90
7445;DHT22;3764;48.126;11.594;2022-11-04T01:57:41;10.30;99.90
7445;DHT22;3764;48.126;11.594;2022-11-04T02:00:11;10.30;99.90
7445;DHT22;3764;48.126;11.594;2022-11-04T02:02:48;10.20;99.90
7445;DHT22;3764;48.126;11.594;2022-11-04T02:05:16;10.20;99.90
7445;DHT22;3764;48.126;11.594;2022-11-04T02:07:47;10.20;99.90
7445;DHT22;3764;48.126;11.594;2022-11-04T02:10:16;10.20;99.90
7445;DHT22;3764;48.126;11.594;2022-11-04T02:12:43;10.20;99.90
7445;DHT22;3764;48.126;11.594;2022-11-04T02:15:16;10.20;99.90
7445;DHT22;3764;48.126;11.594;2022-11-04T02:18:07;10.20;99.90
7445;DHT22;3764;48.126;11.594;2022-11-04T02:21:10;10.20;99.90
7445;DHT22;3764;48.126;11.594;2022-11-04T02:24:10;10.20;99.90
7445;DHT22;3764;48.126;11.594;2022-11-04T02:27:22;10.20;99.90
7445;DHT22;3764;48.126;11.594;2022-11-04T02:30:08;10.20;99.90
7445;DHT22;3764;48.126;11.594;2022-11-04T02:32:53;10.30;99.90
7445;DHT22;3764;48.126;11.594;2022-11-04T02:35:28;10.30;99.90
7445;DHT22;3764;48.126;11.594;2022-11-04T02:38:05;10.30;99.90
7445;DHT22;3764;48.126;11.594;2022-11-04T02:40:40;10.20;99.90
7445;DHT22;3764;48.126;11.594;2022-11-04T02:43:12;10.20;99.90
7445;DHT22;3764;48.126;11.594;2022-11-04T02:45:45;10.20;99.90
7445;DHT22;3764;48.126;11.594;2022-11-04T02:48:19;10.30;99.90
7445;DHT22;3764;48.126;11.594;2022-11-04T02:50:52;10.30;99.90
7445;DHT22;3764;48.126;11.594;2022-11-04T02:53:26;10.30;99.90
7445;DHT22;3764;48.126;11.594;2022-11-04T02:55:56;10.40;99.90
7445;DHT22;3764;48.126;11.594;2022-11-04T02:58:27;10.40;99.90
7445;DHT22;3764;48.126;11.594;2022-11-04T03:00:59;10.40;99.90
7445;DHT22;3764;48.126;11.594;2022-11-04T03:03:30;10.50;99.90
7445;DHT22;3764;48.126;11.594;2022-11-04T03:06:00;10.50;99.90
7445;DHT22;3764;48.126;11.594;2022-11-04T03:08:30;10.40;99.90
7445;DHT22;3764;48.126;11.594;2022-11-04T03:11:02;10.40;99.90
7445;DHT22;3764;48.126;11.594;2022-11-04T03:13:33;10.50;99.90
7445;DHT22;3764;48.126;11.594;2022-11-04T03:16:06;10.40;99.90
7445;DHT22;3764;48.126;11.594;2022-11-04T03:18:40;10.50;99.90
7445;DHT22;3764;48.126;11.594;2022-11-04T03:21:11;10.60;99.90
7445;DHT22;3764;48.126;11.594;2022-11-04T03:23:39;10.50;99.90
7445;DHT22;3764;48.126;11.594;2022-11-04T03:26:12;10.50;99.90
7445;DHT22;3764;48.126;11.594;2022-11-04T03:28:45;10.50;99.90
7445;DHT22;3764;48.126;11.594;2022-11-04T03:31:20;10.40;99.90
7445;DHT22;3764;48.126;11.594;2022-11-04T03:33:50;10.40;99.90
7445;DHT22;3764;48.126;11.594;2022-11-04T03:36:19;10.40;99.90
7445;DHT22;3764;48.126;11.594;2022-11-04T03:38:48;10.40;99.90
7445;DHT22;3764;48.126;11.594;2022-11-04T03:41:19;10.40;99.90
7445;DHT22;3764;48.126;11.594;2022-11-04T03:43:49;10.40;99.90
7445;DHT22;3764;48.126;11.594;2022-11-04T03:46:17;10.40;99.90
7445;DHT22;3764;48.126;11.594;2022-11-04T03:48:47;10.40;99.90
7445;DHT22;3764;48.126;11.594;2022-11-04T03:51:14;10.40;99.90
7445;DHT22;3764;48.126;11.594;2022-11-04T03:53:41;10.30;99.90
7445;DHT22;3764;48.126;11.594;2022-11-04T03:56:24;10.30;99.90
7445;DHT22;3764;48.126;11.594;2022-11-04T03:59:02;10.30;99.90
7445;DHT22;3764;48.126;11.594;2022-11-04T04:01:40;10.30;99.90
7445;DHT22;3764;48.126;11.594;2022-11-04T04:04:15;10.30;99.90
7445;DHT22;3764;48.126;11.594;2022-11-04T04:06:45;10.20;99.90
7445;DHT22;3764;48.126;11.594;2022-11-04T04:09:19;10.20;99.90
7445;DHT22;3764;48.126;11.594;2022-11-04T04:11:51;10.10;99.90
7445;DHT22;3764;48.126;11.594;2022-11-04T04:14:23;10.10;99.90
7445;DHT22;3764;48.126;11.594;2022-11-04T04:17:12;10.00;99.90
7445;DHT22;3764;48.126;11.594;2022-11-04T04:19:44;10.00;99.90
7445;DHT22;3764;48.126;11.594;2022-11-04T04:22:16;10.00;99.90
7445;DHT22;3764;48.126;11.594;2022-11-04T04:24:47;10.00;99.90
7445;DHT22;3764;48.126;11.594;2022-11-04T04:27:33;10.10;99.90
7445;DHT22;3764;48.126;11.594;2022-11-04T04:30:03;10.10;99.90
7445;DHT22;3764;48.126;11.594;2022-11-04T04:32:35;10.10;99.90
7445;DHT22;3764;48.126;11.594;2022-11-04T04:35:05;10.00;99.90
7445;DHT22;3764;48.126;11.594;2022-11-04T04:37:51;10.00;99.90
7445;DHT22;3764;48.126;11.594;2022-11-04T04:40:23;10.00;99.90
7445;DHT22;3764;48.126;11.594;2022-11-04T04:43:14;10.10;99.90
7445;DHT22;3764;48.126;11.594;2022-11-04T04:45:59;10.10;99.90
7445;DHT22;3764;48.126;11.594;2022-11-04T04:48:29;10.20;99.90
7445;DHT22;3764;48.126;11.594;2022-11-04T04:50:56;10.20;99.90
7445;DHT22;3764;48.126;11.594;2022-11-04T04:53:26;10.10;99.90
7445;DHT22;3764;48.126;11.594;2022-11-04T04:55:54;10.10;99.90
7445;DHT22;3764;48.126;11.594;2022-11-04T04:58:21;10.00;99.90
7445;DHT22;3764;48.126;11.594;2022-11-04T05:00:48;10.00;99.90
7445;DHT22;3764;48.126;11.594;2022-11-04T05:03:15;10.00;99.90
7445;DHT22;3764;48.126;11.594;2022-11-04T05:05:43;10.00;99.90
7445;DHT22;3764;48.126;11.594;2022-11-04T05:08:10;10.00;99.90
7445;DHT22;3764;48.126;11.594;2022-11-04T05:10:37;10.10;99.90
7445;DHT22;3764;48.126;11.594;2022-11-04T05:13:04;10.10;99.90
7445;DHT22;3764;48.126;11.594;2022-11-04T05:15:49;10.10;99.90
7445;DHT22;3764;48.126;11.594;2022-11-04T05:18:17;10.10;99.90
7445;DHT22;3764;48.126;11.594;2022-11-04T05:20:45;10.10;99.90
7445;DHT22;3764;48.126;11.594;2022-11-04T05:23:12;10.10;99.90
7445;DHT22;3764;48.126;11.594;2022-11-04T05:25:40;10.10;99.90
7445;DHT22;3764;48.126;11.594;2022-11-04T05:28:07;10.10;99.90
7445;DHT22;3764;48.126;11.594;2022-11-04T05:30:35;10.10;99.90
7445;DHT22;3764;48.126;11.594;2022-11-04T05:33:02;10.10;99.90
7445;DHT22;3764;48.126;11.594;2022-11-04T05:35:29;10.20;99.90
7445;DHT22;3764;48.126;11.594;2022-11-04T05:37:57;10.20;99.90
7445;DHT22;3764;48.126;11.594;2022-11-04T05:40:25;10.20;99.90
7445;DHT22;3764;48.126;11.594;2022-11-04T05:42:52;10.20;99.90
7445;DHT22;3764;48.126;11.594;2022-11-04T05:45:19;10.20;99.90
7445;DHT22;3764;48.126;11.594;2022-11-04T05:47:46;10.20;99.90
7445;DHT22;3764;48.126;11.594;2022-11-04T05:50:13;10.20;99.90
7445;DHT22;3764;48.126;11.594;2022-11-04T05:52:40;10.10;99.90
7445;DHT22;3764;48.126;11.594;2022-11-04T05:55:09;10.10;99.90
7445;DHT22;3764;48.126;11.594;2022-11-04T05:57:36;10.10;99.90
7445;DHT22;3764;48.126;11.594;2022-11-04T06:00:04;10.10;99.90
7445;DHT22;3764;48.126;11.594;2022-11-04T06:02:31;10.10;99.90
7445;DHT22;3764;48.126;11.594;2022-11-04T06:04:58;10.10;99.90
7445;DHT22;3764;48.126;11.594;2022-11-04T06:07:26;10.00;99.90
7445;DHT22;3764;48.126;11.594;2022-11-04T06:09:53;10.10;99.90
7445;DHT22;3764;48.126;11.594;2022-11-04T06:12:21;10.00;99.90
7445;DHT22;3764;48.126;11.594;2022-11-04T06:14:48;10.00;99.90
7445;DHT22;3764;48.126;11.594;2022-11-04T06:17:16;10.00;99.90
7445;DHT22;3764;48.126;11.594;2022-11-04T06:19:44;9.90;99.90
7445;DHT22;3764;48.126;11.594;2022-11-04T06:22:12;9.70;99.90
7445;DHT22;3764;48.126;11.594;2022-11-04T06:24:39;9.60;99.90
7445;DHT22;3764;48.126;11.594;2022-11-04T06:27:07;9.40;99.90
7445;DHT22;3764;48.126;11.594;2022-11-04T06:29:36;9.30;99.90
7445;DHT22;3764;48.126;11.594;2022-11-04T06:32:05;9.10;99.90
7445;DHT22;3764;48.126;11.594;2022-11-04T06:34:32;9.00;99.90
7445;DHT22;3764;48.126;11.594;2022-11-04T06:36:59;9.10;99.90
7445;DHT22;3764;48.126;11.594;2022-11-04T06:39:26;9.20;99.90
7445;DHT22;3764;48.126;11.594;2022-11-04T06:41:54;9.20;99.90
7445;DHT22;3764;48.126;11.594;2022-11-04T06:44:21;9.20;99.90
7445;DHT22;3764;48.126;11.594;2022-11-04T06:46:50;9.20;99.90
7445;DHT22;3764;48.126;11.594;2022-11-04T06:49:18;9.30;99.90
7445;DHT22;3764;48.126;11.594;2022-11-04T06:51:46;9.40;99.90
7445;DHT22;3764;48.126;11.594;2022-11-04T06:54:14;9.40;99.90
7445;DHT22;3764;48.126;11.594;2022-11-04T06:56:41;9.40;99.90
7445;DHT22;3764;48.126;11.594;2022-11-04T06:59:13;9.40;99.90
7445;DHT22;3764;48.126;11.594;2022-11-04T07:01:41;9.40;99.90
7445;DHT22;3764;48.126;11.594;2022-11-04T07:04:09;9.40;99.90
7445;DHT22;3764;48.126;11.594;2022-11-04T07:06:36;9.40;99.90
7445;DHT22;3764;48.126;11.594;2022-11-04T07:09:03;9.40;99.90
7445;DHT22;3764;48.126;11.594;2022-11-04T07:11:31;9.40;99.90
7445;DHT22;3764;48.126;11.594;2022-11-04T07:13:59;9.50;99.90
7445;DHT22;3764;48.126;11.594;2022-11-04T07:16:27;9.50;99.90
7445;DHT22;3764;48.126;11.594;2022-11-04T07:18:55;9.50;99.90
7445;DHT22;3764;48.126;11.594;2022-11-04T07:21:24;9.50;99.90
7445;DHT22;3764;48.126;11.594;2022-11-04T07:23:52;9.50;99.90
7445;DHT22;3764;48.126;11.594;2022-11-04T07:26:19;9.50;99.90
7445;DHT22;3764;48.126;11.594;2022-11-04T07:28:46;9.50;99.90
7445;DHT22;3764;48.126;11.594;2022-11-04T07:31:14;9.40;99.90
7445;DHT22;3764;48.126;11.594;2022-11-04T07:33:42;9.40;99.90
7445;DHT22;3764;48.126;11.594;2022-11-04T07:36:14;9.40;99.90
7445;DHT22;3764;48.126;11.594;2022-11-04T07:38:44;9.40;99.90
7445;DHT22;3764;48.126;11.594;2022-11-04T07:41:11;9.40;99.90
7445;DHT22;3764;48.126;11.594;2022-11-04T07:43:38;9.40;99.90
7445;DHT22;3764;48.126;11.594;2022-11-04T07:46:07;9.30;99.90
7445;DHT22;3764;48.126;11.594;2022-11-04T07:48:34;9.40;99.90
7445;DHT22;3764;48.126;11.594;2022-11-04T07:51:03;9.30;99.90
7445;DHT22;3764;48.126;11.594;2022-11-04T07:53:31;9.40;99.90
7445;DHT22;3764;48.126;11.594;2022-11-04T07:56:02;9.30;99.90
7445;DHT22;3764;48.126;11.594;2022-11-04T07:58:29;9.20;99.90
7445;DHT22;3764;48.126;11.594;2022-11-04T08:01:00;9.00;99.90
7445;DHT22;3764;48.126;11.594;2022-11-04T08:03:28;8.90;99.90
7445;DHT22;3764;48.126;11.594;2022-11-04T08:05:55;8.80;99.90
7445;DHT22;3764;48.126;11.594;2022-11-04T08:08:22;8.70;99.90
7445;DHT22;3764;48.126;11.594;2022-11-04T08:10:53;8.60;99.90
7445;DHT22;3764;48.126;11.594;2022-11-04T08:13:26;8.60;99.90
7445;DHT22;3764;48.126;11.594;2022-11-04T08:15:54;8.50;99.90
7445;DHT22;3764;48.126;11.594;2022-11-04T08:18:21;8.50;99.90
7445;DHT22;3764;48.126;11.594;2022-11-04T08:20:49;8.40;99.90
7445;DHT22;3764;48.126;11.594;2022-11-04T08:23:16;8.50;99.90
7445;DHT22;3764;48.126;11.594;2022-11-04T08:25:43;8.50;99.90
7445;DHT22;3764;48.126;11.594;2022-11-04T08:28:10;8.50;99.90
7445;DHT22;3764;48.126;11.594;2022-11-04T08:30:51;8.50;99.90
7445;DHT22;3764;48.126;11.594;2022-11-04T08:33:18;8.50;99.90
7445;DHT22;3764;48.126;11.594;2022-11-04T08:35:45;8.50;99.90
7445;DHT22;3764;48.126;11.594;2022-11-04T08:38:12;8.40;99.90
7445;DHT22;3764;48.126;11.594;2022-11-04T08:40:39;8.40;99.90
7445;DHT22;3764;48.126;11.594;2022-11-04T08:43:06;8.40;99.90
7445;DHT22;3764;48.126;11.594;2022-11-04T08:45:38;8.40;99.90
7445;DHT22;3764;48.126;11.594;2022-11-04T08:48:07;8.40;99.90
7445;DHT22;3764;48.126;11.594;2022-11-04T08:50:34;8.40;99.90
7445;DHT22;3764;48.126;11.594;2022-11-04T08:53:02;8.40;99.90
7445;DHT22;3764;48.126;11.594;2022-11-04T08:55:29;8.40;99.90
7445;DHT22;3764;48.126;11.594;2022-11-04T08:57:57;8.50;99.90
7445;DHT22;3764;48.126;11.594;2022-11-04T09:00:24;8.60;99.90
7445;DHT22;3764;48.126;11.594;2022-11-04T09:02:52;8.60;99.90
7445;DHT22;3764;48.126;11.594;2022-11-04T09:05:21;8.60;99.90
7445;DHT22;3764;48.126;11.594;2022-11-04T09:07:49;8.60;99.90
7445;DHT22;3764;48.126;11.594;2022-11-04T09:10:16;8.60;99.90
7445;DHT22;3764;48.126;11.594;2022-11-04T09:12:44;8.60;99.90
7445;DHT22;3764;48.126;11.594;2022-11-04T09:15:11;8.60;99.90
7445;DHT22;3764;48.126;11.594;2022-11-04T09:17:38;8.60;99.90
7445;DHT22;3764;48.126;11.594;2022-11-04T09:20:06;8.60;99.90
7445;DHT22;3764;48.126;11.594;2022-11-04T09:22:34;8.60;99.90
7445;DHT22;3764;48.126;11.594;2022-11-04T09:25:01;8.60;99.90
7445;DHT22;3764;48.126;11.594;2022-11-04T09:27:29;8.70;99.90
7445;DHT22;3764;48.126;11.594;2022-11-04T09:29:56;8.60;99.90
7445;DHT22;3764;48.126;11.594;2022-11-04T09:32:23;8.60;99.90
7445;DHT22;3764;48.126;11.594;2022-11-04T09:34:50;8.60;99.90
7445;DHT22;3764;48.126;11.594;2022-11-04T09:37:17;8.60;99.90
7445;DHT22;3764;48.126;11.594;2022-11-04T09:39:46;8.70;99.90
7445;DHT22;3764;48.126;11.594;2022-11-04T09:42:32;8.60;99.90
7445;DHT22;3764;48.126;11.594;2022-11-04T09:45:08;8.60;99.90
7445;DHT22;3764;48.126;11.594;2022-11-04T09:47:38;8.60;99.90
7445;DHT22;3764;48.126;11.594;2022-11-04T09:50:09;8.60;99.90
7445;DHT22;3764;48.126;11.594;2022-11-04T09:52:40;8.60;99.90
7445;DHT22;3764;48.126;11.594;2022-11-04T09:55:15;8.60;99.90
7445;DHT22;3764;48.126;11.594;2022-11-04T09:57:44;8.60;99.90
7445;DHT22;3764;48.126;11.594;2022-11-04T10:00:14;8.60;99.90
7445;DHT22;3764;48.126;11.594;2022-11-04T10:02:50;8.60;99.90
7445;DHT22;3764;48.126;11.594;2022-11-04T10:05:30;8.60;99.90
7445;DHT22;3764;48.126;11.594;2022-11-04T10:08:17;8.60;99.90
7445;DHT22;3764;48.126;11.594;2022-11-04T10:10:54;8.70;99.90
7445;DHT22;3764;48.126;11.594;2022-11-04T10:13:32;8.80;99.90
7445;DHT22;3764;48.126;11.594;2022-11-04T10:16:10;8.80;99.90
7445;DHT22;3764;48.126;11.594;2022-11-04T10:18:57;8.80;99.90
7445;DHT22;3764;48.126;11.594;2022-11-04T10:21:35;8.70;99.90
7445;DHT22;3764;48.126;11.594;2022-11-04T10:24:15;8.60;99.90
7445;DHT22;3764;48.126;11.594;2022-11-04T10:26:46;8.60;99.90
7445;DHT22;3764;48.126;11.594;2022-11-04T10:29:16;8.50;99.90
7445;DHT22;3764;48.126;11.594;2022-11-04T10:31:46;8.50;99.90
7445;DHT22;3764;48.126;11.594;2022-11-04T10:34:24;8.50;99.90
7445;DHT22;3764;48.126;11.594;2022-11-04T10:36:52;8.50;99.90
7445;DHT22;3764;48.126;11.594;2022-11-04T10:39:26;8.60;99.90
7445;DHT22;3764;48.126;11.594;2022-11-04T10:41:56;8.60;99.90
7445;DHT22;3764;48.126;11.594;2022-11-04T10:44:27;8.60;99.90
7445;DHT22;3764;48.126;11.594;2022-11-04T10:47:03;8.60;99.90
7445;DHT22;3764;48.126;11.594;2022-11-04T10:49:49;8.70;99.90
7445;DHT22;3764;48.126;11.594;2022-11-04T10:52:20;8.80;99.90
7445;DHT22;3764;48.126;11.594;2022-11-04T10:54:48;8.80;99.90
7445;DHT22;3764;48.126;11.594;2022-11-04T10:57:19;8.80;99.90
7445;DHT22;3764;48.126;11.594;2022-11-04T10:59:52;8.80;99.90
7445;DHT22;3764;48.126;11.594;2022-11-04T11:02:45;8.80;99.90
7445;DHT22;3764;48.126;11.594;2022-11-04T11:05:20;8.80;99.90
7445;DHT22;3764;48.126;11.594;2022-11-04T11:07:50;8.90;99.90
7445;DHT22;3764;48.126;11.594;2022-11-04T11:10:19;8.90;99.90
7445;DHT22;3764;48.126;11.594;2022-11-04T11:12:53;9.00;99.90
7445;DHT22;3764;48.126;11.594;2022-11-04T11:15:30;9.10;99.90
7445;DHT22;3764;48.126;11.594;2022-11-04T11:18:11;9.10;99.90
7445;DHT22;3764;48.126;11.594;2022-11-04T11:20:40;9.10;99.90
7445;DHT22;3764;48.126;11.594;2022-11-04T11:23:34;9.20;99.90
7445;DHT22;3764;48.126;11.594;2022-11-04T11:26:02;9.20;99.90
7445;DHT22;3764;48.126;11.594;2022-11-04T11:28:31;9.10;99.90
7445;DHT22;3764;48.126;11.594;2022-11-04T11:31:04;9.10;99.90
7445;DHT22;3764;48.126;11.594;2022-11-04T11:33:39;9.00;99.90
7445;DHT22;3764;48.126;11.594;2022-11-04T11:36:13;9.00;99.90
7445;DHT22;3764;48.126;11.594;2022-11-04T11:38:53;8.90;99.90
7445;DHT22;3764;48.126;11.594;2022-11-04T11:41:21;8.90;99.90
7445;DHT22;3764;48.126;11.594;2022-11-04T11:44:28;8.90;99.90
7445;DHT22;3764;48.126;11.594;2022-11-04T11:47:20;8.70;99.90
7445;DHT22;3764;48.126;11.594;2022-11-04T11:50:04;8.90;99.90
7445;DHT22;3764;48.126;11.594;2022-11-04T11:52:32;8.80;99.90
7445;DHT22;3764;48.126;11.594;2022-11-04T11:55:04;8.70;99.90
7445;DHT22;3764;48.126;11.594;2022-11-04T11:57:43;8.70;99.90
7445;DHT22;3764;48.126;11.594;2022-11-04T12:00:16;8.70;99.90
7445;DHT22;3764;48.126;11.594;2022-11-04T12:02:52;8.60;99.90
7445;DHT22;3764;48.126;11.594;2022-11-04T12:05:26;8.60;99.90
7445;DHT22;3764;48.126;11.594;2022-11-04T12:07:58;8.70;99.90
7445;DHT22;3764;48.126;11.594;2022-11-04T12:10:35;8.60;99.90
7445;DHT22;3764;48.126;11.594;2022-11-04T12:13:11;8.60;99.90
7445;DHT22;3764;48.126;11.594;2022-11-04T12:15:58;8.60;99.90
7445;DHT22;3764;48.126;11.594;2022-11-04T12:18:56;8.60;99.90
7445;DHT22;3764;48.126;11.594;2022-11-04T12:21:26;8.60;99.90
7445;DHT22;3764;48.126;11.594;2022-11-04T12:24:00;8.50;99.90
7445;DHT22;3764;48.126;11.594;2022-11-04T12:26:37;8.50;99.90
7445;DHT22;3764;48.126;11.594;2022-11-04T12:29:28;8.40;99.90
7445;DHT22;3764;48.126;11.594;2022-11-04T12:32:11;8.40;99.90
7445;DHT22;3764;48.126;11.594;2022-11-04T12:34:53;8.30;99.90
7445;DHT22;3764;48.126;11.594;2022-11-04T12:37:32;8.30;99.90
7445;DHT22;3764;48.126;11.594;2022-11-04T12:40:10;8.30;99.90
7445;DHT22;3764;48.126;11.594;2022-11-04T12:42:46;8.30;99.90
7445;DHT22;3764;48.126;11.594;2022-11-04T12:45:23;8.30;99.90
7445;DHT22;3764;48.126;11.594;2022-11-04T12:47:54;8.30;99.90
7445;DHT22;3764;48.126;11.594;2022-11-04T12:50:42;8.30;99.90
7445;DHT22;3764;48.126;11.594;2022-11-04T12:53:37;8.30;99.90
7445;DHT22;3764;48.126;11.594;2022-11-04T12:56:13;8.30;99.90
7445;DHT22;3764;48.126;11.594;2022-11-04T12:58:47;8.30;99.90
7445;DHT22;3764;48.126;11.594;2022-11-04T13:01:24;8.20;99.90
7445;DHT22;3764;48.126;11.594;2022-11-04T13:03:57;8.20;99.90
7445;DHT22;3764;48.126;11.594;2022-11-04T13:06:27;8.10;99.90
7445;DHT22;3764;48.126;11.594;2022-11-04T13:09:00;8.10;99.90
7445;DHT22;3764;48.126;11.594;2022-11-04T13:11:32;8.10;99.90
7445;DHT22;3764;48.126;11.594;2022-11-04T13:14:04;8.10;99.90
7445;DHT22;3764;48.126;11.594;2022-11-04T13:16:37;8.00;99.90
7445;DHT22;3764;48.126;11.594;2022-11-04T13:19:17;8.00;99.90
7445;DHT22;3764;48.126;11.594;2022-11-04T13:21:45;8.00;99.90
7445;DHT22;3764;48.126;11.594;2022-11-04T13:24:16;8.00;99.90
7445;DHT22;3764;48.126;11.594;2022-11-04T13:26:47;7.90;99.90
7445;DHT22;3764;48.126;11.594;2022-11-04T13:29:14;7.80;99.90
7445;DHT22;3764;48.126;11.594;2022-11-04T13:31:47;7.80;99.90
7445;DHT22;3764;48.126;11.594;2022-11-04T13:34:27;7.80;99.90
7445;DHT22;3764;48.126;11.594;2022-11-04T13:37:07;7.70;99.90
7445;DHT22;3764;48.126;11.594;2022-11-04T13:39:39;7.70;99.90
7445;DHT22;3764;48.126;11.594;2022-11-04T13:42:26;7.60;99.90
7445;DHT22;3764;48.126;11.594;2022-11-04T13:44:58;7.60;99.90
7445;DHT22;3764;48.126;11.594;2022-11-04T13:47:34;7.60;99.90
7445;DHT22;3764;48.126;11.594;2022-11-04T13:50:05;7.60;99.90
7445;DHT22;3764;48.126;11.594;2022-11-04T13:52:32;7.60;99.90
7445;DHT22;3764;48.126;11.594;2022-11-04T13:55:02;7.60;99.90
7445;DHT22;3764;48.126;11.594;2022-11-04T13:57:51;7.60;99.90
7445;DHT22;3764;48.126;11.594;2022-11-04T14:00:22;7.60;99.90
7445;DHT22;3764;48.126;11.594;2022-11-04T14:02:50;7.60;99.90
7445;DHT22;3764;48.126;11.594;2022-11-04T14:06:05;7.70;99.90
7445;DHT22;3764;48.126;11.594;2022-11-04T14:08:33;7.60;99.90
7445;DHT22;3764;48.126;11.594;2022-11-04T14:11:07;7.70;99.90
7445;DHT22;3764;48.126;11.594;2022-11-04T14:13:45;7.70;99.90
7445;DHT22;3764;48.126;11.594;2022-11-04T14:16:40;7.70;99.90
7445;DHT22;3764;48.126;11.594;2022-11-04T14:22:36;7.70;99.90
7445;DHT22;3764;48.126;11.594;2022-11-04T14:25:22;7.70;99.90
7445;DHT22;3764;48.126;11.594;2022-11-04T14:27:54;7.80;99.90
7445;DHT22;3764;48.126;11.594;2022-11-04T14:30:40;7.80;99.90
7445;DHT22;3764;48.126;11.594;2022-11-04T14:36:33;7.80;99.90
7445;DHT22;3764;48.126;11.594;2022-11-04T14:39:18;7.80;99.90
7445;DHT22;3764;48.126;11.594;2022-11-04T14:41:57;7.70;99.90
7445;DHT22;3764;48.126;11.594;2022-11-04T14:44:30;7.80;99.90
7445;DHT22;3764;48.126;11.594;2022-11-04T14:47:00;7.70;99.90
7445;DHT22;3764;48.126;11.594;2022-11-04T14:49:43;7.70;99.90
7445;DHT22;3764;48.126;11.594;2022-11-04T14:52:20;7.70;99.90
7445;DHT22;3764;48.126;11.594;2022-11-04T14:54:54;7.70;99.90
7445;DHT22;3764;48.126;11.594;2022-11-04T14:57:22;7.70;99.90
7445;DHT22;3764;48.126;11.594;2022-11-04T14:59:50;7.70;99.90
7445;DHT22;3764;48.126;11.594;2022-11-04T15:02:21;7.70;99.90
7445;DHT22;3764;48.126;11.594;2022-11-04T15:04:51;7.70;99.90
7445;DHT22;3764;48.126;11.594;2022-11-04T15:07:25;7.70;99.90
7445;DHT22;3764;48.126;11.594;2022-11-04T15:09:59;7.70;99.90
7445;DHT22;3764;48.126;11.594;2022-11-04T15:12:27;7.70;99.90
7445;DHT22;3764;48.126;11.594;2022-11-04T15:15:33;7.70;99.90
7445;DHT22;3764;48.126;11.594;2022-11-04T15:18:06;7.70;99.90
7445;DHT22;3764;48.126;11.594;2022-11-04T15:20:37;7.60;99.90
7445;DHT22;3764;48.126;11.594;2022-11-04T15:23:11;7.60;99.90
7445;DHT22;3764;48.126;11.594;2022-11-04T15:25:45;7.60;99.90
7445;DHT22;3764;48.126;11.594;2022-11-04T15:28:21;7.60;99.90
7445;DHT22;3764;48.126;11.594;2022-11-04T15:30:58;7.60;99.90
7445;DHT22;3764;48.126;11.594;2022-11-04T15:33:25;7.60;99.90
7445;DHT22;3764;48.126;11.594;2022-11-04T15:35:54;7.60;99.90
7445;DHT22;3764;48.126;11.594;2022-11-04T15:38:24;7.60;99.90
7445;DHT22;3764;48.126;11.594;2022-11-04T15:40:55;7.50;99.90
7445;DHT22;3764;48.126;11.594;2022-11-04T15:43:43;7.60;99.90
7445;DHT22;3764;48.126;11.594;2022-11-04T15:46:16;7.50;99.90
7445;DHT22;3764;48.126;11.594;2022-11-04T15:49:02;7.50;99.90
7445;DHT22;3764;48.126;11.594;2022-11-04T15:51:34;7.50;99.90
7445;DHT22;3764;48.126;11.594;2022-11-04T15:54:04;7.50;99.90
7445;DHT22;3764;48.126;11.594;2022-11-04T15:56:38;7.50;99.90
7445;DHT22;3764;48.126;11.594;2022-11-04T15:59:08;7.50;99.90
7445;DHT22;3764;48.126;11.594;2022-11-04T16:01:44;7.50;99.90
7445;DHT22;3764;48.126;11.594;2022-11-04T16:04:14;7.40;99.90
7445;DHT22;3764;48.126;11.594;2022-11-04T16:06:43;7.40;99.90
7445;DHT22;3764;48.126;11.594;2022-11-04T16:09:25;7.50;99.90
7445;DHT22;3764;48.126;11.594;2022-11-04T16:12:06;7.40;99.90
7445;DHT22;3764;48.126;11.594;2022-11-04T16:14:33;7.40;99.90
7445;DHT22;3764;48.126;11.594;2022-11-04T16:17:01;7.40;99.90
7445;DHT22;3764;48.126;11.594;2022-11-04T16:19:29;7.40;99.90
7445;DHT22;3764;48.126;11.594;2022-11-04T16:22:01;7.40;99.90
7445;DHT22;3764;48.126;11.594;2022-11-04T16:24:31;7.40;99.90
7445;DHT22;3764;48.126;11.594;2022-11-04T16:26:59;7.40;99.90
7445;DHT22;3764;48.126;11.594;2022-11-04T16:29:29;7.40;99.90
7445;DHT22;3764;48.126;11.594;2022-11-04T16:32:17;7.40;99.90
7445;DHT22;3764;48.126;11.594;2022-11-04T16:34:48;7.40;99.90
7445;DHT22;3764;48.126;11.594;2022-11-04T16:37:15;7.40;99.90